Main page
METAR-TAF:

METAR-TAF

Airports :

RAF Cranwell

Cranwell, England

latitude: 53-02N, longitude: 000-30W, elevation: 67 m

Current weather observation

The report was made 48 minutes ago, at 02:50 UTC
Wind 7 kt from the Northwest
Temperature 9°C
Humidity 93%
Pressure 1015 hPa
Visibility: 9000 m

METAR: EGYD 230250Z AUTO 32007KT 9000 // BKN050/// BKN070/// BKN180/// 09/08 Q1015

Time: 04:38 (03:38 UTC)

Forecast

The report was made 13 hours and 44 minutes ago, at 13:54 UTC
Forecast valid from 22 at 15 UTC to 22 at 18 UTC
Wind 11 kt from the West/Southwest
Visibility 10 km or more
Few clouds at a height of 3000 ft

TAF: EGYD 221354Z 2215/2218 24011KT 9999 FEW030

Weather observations and forecasts of more than 4000 airports (METAR and TAF reports).

The available stations are represented by yellow and red dots on the map.

Hover mouse over dot to see the name of the station.

Then click to see weather observations and forecasts.

To change the map : click on the green buttons with a black cross to zoom in, on the green button with a dash to zoom out, or on the green arrows for adjacent maps.


METAR-TAF: